sensor_id;sensor_type;location;lat;lon;timestamp;temperature;humidity
60039;DHT22;45916;52.734;6.544;2023-04-03T00:00:05;0.90;99.90
60039;DHT22;45916;52.734;6.544;2023-04-03T00:02:32;0.80;99.90
60039;DHT22;45916;52.734;6.544;2023-04-03T00:04:58;0.70;99.90
60039;DHT22;45916;52.734;6.544;2023-04-03T00:07:23;0.70;99.90
60039;DHT22;45916;52.734;6.544;2023-04-03T00:09:49;0.70;99.90
60039;DHT22;45916;52.734;6.544;2023-04-03T00:12:15;0.60;99.90
60039;DHT22;45916;52.734;6.544;2023-04-03T00:14:41;0.60;99.90
60039;DHT22;45916;52.734;6.544;2023-04-03T00:17:07;0.60;99.90
60039;DHT22;45916;52.734;6.544;2023-04-03T00:19:32;0.50;99.90
60039;DHT22;45916;52.734;6.544;2023-04-03T00:21:58;0.50;99.90
60039;DHT22;45916;52.734;6.544;2023-04-03T00:24:24;0.50;99.90
60039;DHT22;45916;52.734;6.544;2023-04-03T00:26:50;0.50;99.90
60039;DHT22;45916;52.734;6.544;2023-04-03T00:29:15;0.60;99.90
60039;DHT22;45916;52.734;6.544;2023-04-03T00:31:41;0.60;99.90
60039;DHT22;45916;52.734;6.544;2023-04-03T00:34:07;0.60;99.90
60039;DHT22;45916;52.734;6.544;2023-04-03T00:36:32;0.60;99.90
60039;DHT22;45916;52.734;6.544;2023-04-03T00:38:58;0.60;99.90
60039;DHT22;45916;52.734;6.544;2023-04-03T00:41:24;0.60;99.90
60039;DHT22;45916;52.734;6.544;2023-04-03T00:43:50;0.60;99.90
60039;DHT22;45916;52.734;6.544;2023-04-03T00:46:16;0.70;99.90
60039;DHT22;45916;52.734;6.544;2023-04-03T00:48:45;0.70;99.90
60039;DHT22;45916;52.734;6.544;2023-04-03T00:51:22;0.70;99.90
60039;DHT22;45916;52.734;6.544;2023-04-03T00:53:53;0.70;99.90
60039;DHT22;45916;52.734;6.544;2023-04-03T00:56:23;0.70;99.90
60039;DHT22;45916;52.734;6.544;2023-04-03T00:59:13;0.60;99.90
60039;DHT22;45916;52.734;6.544;2023-04-03T01:01:35;0.70;99.90
60039;DHT22;45916;52.734;6.544;2023-04-03T01:04:02;0.60;99.90
60039;DHT22;45916;52.734;6.544;2023-04-03T01:06:30;0.60;99.90
60039;DHT22;45916;52.734;6.544;2023-04-03T01:08:58;0.60;99.90
60039;DHT22;45916;52.734;6.544;2023-04-03T01:11:24;0.60;99.90
60039;DHT22;45916;52.734;6.544;2023-04-03T01:13:50;0.50;99.90
60039;DHT22;45916;52.734;6.544;2023-04-03T01:16:16;0.50;99.90
60039;DHT22;45916;52.734;6.544;2023-04-03T01:18:42;0.50;99.90
60039;DHT22;45916;52.734;6.544;2023-04-03T01:21:21;0.60;99.90
60039;DHT22;45916;52.734;6.544;2023-04-03T01:26:22;0.40;99.90
60039;DHT22;45916;52.734;6.544;2023-04-03T01:28:47;0.40;99.90
60039;DHT22;45916;52.734;6.544;2023-04-03T01:34:14;0.40;99.90
60039;DHT22;45916;52.734;6.544;2023-04-03T01:36:40;0.30;99.90
60039;DHT22;45916;52.734;6.544;2023-04-03T01:39:06;0.30;99.90
60039;DHT22;45916;52.734;6.544;2023-04-03T01:41:32;0.30;99.90
60039;DHT22;45916;52.734;6.544;2023-04-03T01:43:58;0.30;99.90
60039;DHT22;45916;52.734;6.544;2023-04-03T01:46:24;0.30;99.90
60039;DHT22;45916;52.734;6.544;2023-04-03T01:48:50;0.30;99.90
60039;DHT22;45916;52.734;6.544;2023-04-03T01:51:16;0.30;99.90
60039;DHT22;45916;52.734;6.544;2023-04-03T01:53:42;0.20;99.90
60039;DHT22;45916;52.734;6.544;2023-04-03T01:56:08;0.10;99.90
60039;DHT22;45916;52.734;6.544;2023-04-03T01:58:33;0.10;99.90
60039;DHT22;45916;52.734;6.544;2023-04-03T02:00:59;0.10;99.90
60039;DHT22;45916;52.734;6.544;2023-04-03T02:03:25;0.10;99.90
60039;DHT22;45916;52.734;6.544;2023-04-03T02:05:51;0.10;99.90
60039;DHT22;45916;52.734;6.544;2023-04-03T02:08:17;0.00;99.90
60039;DHT22;45916;52.734;6.544;2023-04-03T02:10:44;0.00;99.90
60039;DHT22;45916;52.734;6.544;2023-04-03T02:13:10;0.00;99.90
60039;DHT22;45916;52.734;6.544;2023-04-03T02:15:38;0.10;99.90
60039;DHT22;45916;52.734;6.544;2023-04-03T02:18:05;0.10;99.90
60039;DHT22;45916;52.734;6.544;2023-04-03T02:20:30;0.00;99.90
60039;DHT22;45916;52.734;6.544;2023-04-03T02:22:56;-0.10;99.90
60039;DHT22;45916;52.734;6.544;2023-04-03T02:25:22;-0.10;99.90
60039;DHT22;45916;52.734;6.544;2023-04-03T02:27:47;-0.20;99.90
60039;DHT22;45916;52.734;6.544;2023-04-03T02:30:13;-0.20;99.90
60039;DHT22;45916;52.734;6.544;2023-04-03T02:32:41;-0.20;99.90
60039;DHT22;45916;52.734;6.544;2023-04-03T02:35:08;-0.20;99.90
60039;DHT22;45916;52.734;6.544;2023-04-03T02:37:34;-0.20;99.90
60039;DHT22;45916;52.734;6.544;2023-04-03T02:40:00;-0.30;99.90
60039;DHT22;45916;52.734;6.544;2023-04-03T02:42:26;-0.30;99.90
60039;DHT22;45916;52.734;6.544;2023-04-03T02:44:51;-0.30;99.90
60039;DHT22;45916;52.734;6.544;2023-04-03T02:47:17;-0.30;99.90
60039;DHT22;45916;52.734;6.544;2023-04-03T02:49:43;-0.30;99.90
60039;DHT22;45916;52.734;6.544;2023-04-03T02:52:10;-0.40;99.90
60039;DHT22;45916;52.734;6.544;2023-04-03T02:54:36;-0.40;99.90
60039;DHT22;45916;52.734;6.544;2023-04-03T02:57:01;-0.50;99.90
60039;DHT22;45916;52.734;6.544;2023-04-03T02:59:27;-0.50;99.90
60039;DHT22;45916;52.734;6.544;2023-04-03T03:01:53;-0.60;99.90
60039;DHT22;45916;52.734;6.544;2023-04-03T03:04:19;-0.60;99.90
60039;DHT22;45916;52.734;6.544;2023-04-03T03:06:45;-0.60;99.90
60039;DHT22;45916;52.734;6.544;2023-04-03T03:09:12;-0.60;99.90
60039;DHT22;45916;52.734;6.544;2023-04-03T03:11:38;-0.60;99.90
60039;DHT22;45916;52.734;6.544;2023-04-03T03:14:04;-0.70;99.90
60039;DHT22;45916;52.734;6.544;2023-04-03T03:16:30;-0.70;99.90
60039;DHT22;45916;52.734;6.544;2023-04-03T03:18:56;-0.70;99.90
60039;DHT22;45916;52.734;6.544;2023-04-03T03:21:22;-0.80;99.90
60039;DHT22;45916;52.734;6.544;2023-04-03T03:23:47;-0.80;99.90
60039;DHT22;45916;52.734;6.544;2023-04-03T03:26:13;-0.90;99.90
60039;DHT22;45916;52.734;6.544;2023-04-03T03:28:39;-0.90;99.90
60039;DHT22;45916;52.734;6.544;2023-04-03T03:31:06;-0.90;99.90
60039;DHT22;45916;52.734;6.544;2023-04-03T03:33:32;-0.90;99.90
60039;DHT22;45916;52.734;6.544;2023-04-03T03:35:59;-1.00;99.90
60039;DHT22;45916;52.734;6.544;2023-04-03T03:38:25;-1.00;99.90
60039;DHT22;45916;52.734;6.544;2023-04-03T03:40:51;-1.10;99.90
60039;DHT22;45916;52.734;6.544;2023-04-03T03:43:17;-1.10;99.90
60039;DHT22;45916;52.734;6.544;2023-04-03T03:45:44;-1.10;99.90
60039;DHT22;45916;52.734;6.544;2023-04-03T03:48:11;-1.10;99.90
60039;DHT22;45916;52.734;6.544;2023-04-03T03:50:37;-1.20;99.90
60039;DHT22;45916;52.734;6.544;2023-04-03T03:53:02;-1.20;99.90
60039;DHT22;45916;52.734;6.544;2023-04-03T03:55:28;-1.20;99.90
60039;DHT22;45916;52.734;6.544;2023-04-03T03:57:54;-1.20;99.90
60039;DHT22;45916;52.734;6.544;2023-04-03T04:00:20;-1.20;99.90
60039;DHT22;45916;52.734;6.544;2023-04-03T04:02:46;-1.40;99.90
60039;DHT22;45916;52.734;6.544;2023-04-03T04:05:12;-1.40;99.90
60039;DHT22;45916;52.734;6.544;2023-04-03T04:07:37;-1.30;99.90
60039;DHT22;45916;52.734;6.544;2023-04-03T04:10:04;-1.30;99.90
60039;DHT22;45916;52.734;6.544;2023-04-03T04:12:29;-1.30;99.90
60039;DHT22;45916;52.734;6.544;2023-04-03T04:14:55;-1.30;99.90
60039;DHT22;45916;52.734;6.544;2023-04-03T04:17:21;-1.30;99.90
60039;DHT22;45916;52.734;6.544;2023-04-03T04:19:47;-1.30;99.90
60039;DHT22;45916;52.734;6.544;2023-04-03T04:22:12;-1.30;99.90
60039;DHT22;45916;52.734;6.544;2023-04-03T04:24:38;-1.30;99.90
60039;DHT22;45916;52.734;6.544;2023-04-03T04:27:04;-1.30;99.90
60039;DHT22;45916;52.734;6.544;2023-04-03T04:29:29;-1.20;99.90
60039;DHT22;45916;52.734;6.544;2023-04-03T04:32:00;-1.30;99.90
60039;DHT22;45916;52.734;6.544;2023-04-03T04:34:26;-1.30;99.90
60039;DHT22;45916;52.734;6.544;2023-04-03T04:36:52;-1.40;99.90
60039;DHT22;45916;52.734;6.544;2023-04-03T04:39:17;-1.50;99.90
60039;DHT22;45916;52.734;6.544;2023-04-03T04:41:43;-1.50;99.90
60039;DHT22;45916;52.734;6.544;2023-04-03T04:44:09;-1.50;99.90
60039;DHT22;45916;52.734;6.544;2023-04-03T04:46:34;-1.50;99.90
60039;DHT22;45916;52.734;6.544;2023-04-03T04:49:00;-1.50;99.90
60039;DHT22;45916;52.734;6.544;2023-04-03T04:51:26;-1.50;99.90
60039;DHT22;45916;52.734;6.544;2023-04-03T04:53:52;-1.60;99.90
60039;DHT22;45916;52.734;6.544;2023-04-03T04:56:17;-1.60;99.90
60039;DHT22;45916;52.734;6.544;2023-04-03T04:58:43;-1.60;99.90
60039;DHT22;45916;52.734;6.544;2023-04-03T05:01:10;-1.60;99.90
60039;DHT22;45916;52.734;6.544;2023-04-03T05:03:36;-1.60;99.90
60039;DHT22;45916;52.734;6.544;2023-04-03T05:06:02;-1.60;99.90
60039;DHT22;45916;52.734;6.544;2023-04-03T05:08:28;-1.60;99.90
60039;DHT22;45916;52.734;6.544;2023-04-03T05:10:53;-1.50;99.90
60039;DHT22;45916;52.734;6.544;2023-04-03T05:13:19;-1.50;99.90
60039;DHT22;45916;52.734;6.544;2023-04-03T05:15:46;-1.40;99.90
60039;DHT22;45916;52.734;6.544;2023-04-03T05:18:12;-1.30;99.90
60039;DHT22;45916;52.734;6.544;2023-04-03T05:20:37;-1.00;99.90
60039;DHT22;45916;52.734;6.544;2023-04-03T05:23:03;-0.60;99.90
60039;DHT22;45916;52.734;6.544;2023-04-03T05:25:29;-0.40;99.90
60039;DHT22;45916;52.734;6.544;2023-04-03T05:27:55;-0.10;99.90
60039;DHT22;45916;52.734;6.544;2023-04-03T05:30:21;0.10;99.90
60039;DHT22;45916;52.734;6.544;2023-04-03T05:32:47;0.20;99.90
60039;DHT22;45916;52.734;6.544;2023-04-03T05:35:12;0.50;99.90
60039;DHT22;45916;52.734;6.544;2023-04-03T05:37:38;0.80;99.90
60039;DHT22;45916;52.734;6.544;2023-04-03T05:40:05;1.40;99.90
60039;DHT22;45916;52.734;6.544;2023-04-03T05:42:31;2.50;99.90
60039;DHT22;45916;52.734;6.544;2023-04-03T05:44:57;3.90;99.90
60039;DHT22;45916;52.734;6.544;2023-04-03T05:47:23;5.40;99.90
60039;DHT22;45916;52.734;6.544;2023-04-03T05:49:48;6.60;99.90
60039;DHT22;45916;52.734;6.544;2023-04-03T05:52:29;7.80;99.90
60039;DHT22;45916;52.734;6.544;2023-04-03T05:54:55;9.00;99.90
60039;DHT22;45916;52.734;6.544;2023-04-03T05:57:21;10.10;99.90
60039;DHT22;45916;52.734;6.544;2023-04-03T05:59:47;11.30;99.90
60039;DHT22;45916;52.734;6.544;2023-04-03T06:02:16;12.30;99.90
60039;DHT22;45916;52.734;6.544;2023-04-03T06:04:42;13.00;97.80
60039;DHT22;45916;52.734;6.544;2023-04-03T06:07:12;13.70;90.20
60039;DHT22;45916;52.734;6.544;2023-04-03T06:09:38;14.40;78.10
60039;DHT22;45916;52.734;6.544;2023-04-03T06:12:04;15.20;73.50
60039;DHT22;45916;52.734;6.544;2023-04-03T06:14:30;16.10;65.40
60039;DHT22;45916;52.734;6.544;2023-04-03T06:16:56;16.90;62.40
60039;DHT22;45916;52.734;6.544;2023-04-03T06:19:22;17.30;60.30
60039;DHT22;45916;52.734;6.544;2023-04-03T06:21:48;17.20;56.90
60039;DHT22;45916;52.734;6.544;2023-04-03T06:24:16;16.80;54.20
60039;DHT22;45916;52.734;6.544;2023-04-03T06:26:42;17.40;55.60
60039;DHT22;45916;52.734;6.544;2023-04-03T06:29:08;17.60;53.20
60039;DHT22;45916;52.734;6.544;2023-04-03T06:31:34;16.40;52.60
60039;DHT22;45916;52.734;6.544;2023-04-03T06:34:02;16.00;52.10
60039;DHT22;45916;52.734;6.544;2023-04-03T06:36:28;14.80;54.90
60039;DHT22;45916;52.734;6.544;2023-04-03T06:38:54;13.80;55.50
60039;DHT22;45916;52.734;6.544;2023-04-03T06:41:20;13.20;54.80
60039;DHT22;45916;52.734;6.544;2023-04-03T06:43:46;13.10;57.50
60039;DHT22;45916;52.734;6.544;2023-04-03T06:46:17;13.10;56.30
60039;DHT22;45916;52.734;6.544;2023-04-03T06:48:44;12.90;56.10
60039;DHT22;45916;52.734;6.544;2023-04-03T06:51:30;12.50;55.80
60039;DHT22;45916;52.734;6.544;2023-04-03T06:53:59;12.30;57.60
60039;DHT22;45916;52.734;6.544;2023-04-03T06:56:26;12.30;56.30
60039;DHT22;45916;52.734;6.544;2023-04-03T06:58:54;12.10;57.60
60039;DHT22;45916;52.734;6.544;2023-04-03T07:01:20;11.60;57.80
60039;DHT22;45916;52.734;6.544;2023-04-03T07:03:47;12.00;58.70
60039;DHT22;45916;52.734;6.544;2023-04-03T07:06:15;12.10;57.40
60039;DHT22;45916;52.734;6.544;2023-04-03T07:08:42;12.10;58.80
60039;DHT22;45916;52.734;6.544;2023-04-03T07:11:09;12.60;58.40
60039;DHT22;45916;52.734;6.544;2023-04-03T07:13:35;12.90;56.90
60039;DHT22;45916;52.734;6.544;2023-04-03T07:16:02;13.10;55.30
60039;DHT22;45916;52.734;6.544;2023-04-03T07:18:30;12.90;55.40
60039;DHT22;45916;52.734;6.544;2023-04-03T07:20:56;12.70;56.00
60039;DHT22;45916;52.734;6.544;2023-04-03T07:23:22;12.20;57.00
60039;DHT22;45916;52.734;6.544;2023-04-03T07:25:49;12.30;56.80
60039;DHT22;45916;52.734;6.544;2023-04-03T07:28:17;12.80;56.00
60039;DHT22;45916;52.734;6.544;2023-04-03T07:30:49;12.80;54.80
60039;DHT22;45916;52.734;6.544;2023-04-03T07:33:16;12.70;55.80
60039;DHT22;45916;52.734;6.544;2023-04-03T07:35:43;13.00;55.00
60039;DHT22;45916;52.734;6.544;2023-04-03T07:38:09;13.10;55.50
60039;DHT22;45916;52.734;6.544;2023-04-03T07:40:36;13.40;54.90
60039;DHT22;45916;52.734;6.544;2023-04-03T07:43:02;13.60;53.50
60039;DHT22;45916;52.734;6.544;2023-04-03T07:45:28;13.20;52.60
60039;DHT22;45916;52.734;6.544;2023-04-03T07:47:54;13.10;54.50
60039;DHT22;45916;52.734;6.544;2023-04-03T07:50:20;13.50;55.00
60039;DHT22;45916;52.734;6.544;2023-04-03T07:52:47;13.70;53.50
60039;DHT22;45916;52.734;6.544;2023-04-03T07:55:12;13.30;51.70
60039;DHT22;45916;52.734;6.544;2023-04-03T07:57:38;13.70;53.60
60039;DHT22;45916;52.734;6.544;2023-04-03T08:00:05;14.30;53.10
60039;DHT22;45916;52.734;6.544;2023-04-03T08:02:31;15.00;52.60
60039;DHT22;45916;52.734;6.544;2023-04-03T08:04:59;15.20;51.20
60039;DHT22;45916;52.734;6.544;2023-04-03T08:07:25;15.10;50.10
60039;DHT22;45916;52.734;6.544;2023-04-03T08:09:51;15.40;48.90
60039;DHT22;45916;52.734;6.544;2023-04-03T08:12:17;15.50;49.10
60039;DHT22;45916;52.734;6.544;2023-04-03T08:14:43;15.40;47.30
60039;DHT22;45916;52.734;6.544;2023-04-03T08:17:09;16.10;48.00
60039;DHT22;45916;52.734;6.544;2023-04-03T08:19:40;16.30;46.30
60039;DHT22;45916;52.734;6.544;2023-04-03T08:22:06;16.30;45.90
60039;DHT22;45916;52.734;6.544;2023-04-03T08:24:33;16.20;45.00
60039;DHT22;45916;52.734;6.544;2023-04-03T08:26:59;15.60;45.20
60039;DHT22;45916;52.734;6.544;2023-04-03T08:29:25;15.50;45.90
60039;DHT22;45916;52.734;6.544;2023-04-03T08:31:51;16.10;45.30
60039;DHT22;45916;52.734;6.544;2023-04-03T08:34:18;15.60;44.80
60039;DHT22;45916;52.734;6.544;2023-04-03T08:36:45;16.10;45.10
60039;DHT22;45916;52.734;6.544;2023-04-03T08:39:11;16.40;44.00
60039;DHT22;45916;52.734;6.544;2023-04-03T08:44:31;16.70;44.00
60039;DHT22;45916;52.734;6.544;2023-04-03T08:51:58;15.90;43.40
60039;DHT22;45916;52.734;6.544;2023-04-03T08:54:33;16.20;43.60
60039;DHT22;45916;52.734;6.544;2023-04-03T08:57:03;16.20;42.30
60039;DHT22;45916;52.734;6.544;2023-04-03T08:59:33;16.00;42.50
60039;DHT22;45916;52.734;6.544;2023-04-03T09:02:02;15.80;42.40
60039;DHT22;45916;52.734;6.544;2023-04-03T09:04:32;16.40;42.10
60039;DHT22;45916;52.734;6.544;2023-04-03T09:07:14;16.40;40.50
60039;DHT22;45916;52.734;6.544;2023-04-03T09:09:44;16.70;40.50
60039;DHT22;45916;52.734;6.544;2023-04-03T09:12:31;16.50;39.80
60039;DHT22;45916;52.734;6.544;2023-04-03T09:15:23;16.70;40.90
60039;DHT22;45916;52.734;6.544;2023-04-03T09:21:25;16.70;43.10
60039;DHT22;45916;52.734;6.544;2023-04-03T09:23:55;17.20;39.90
60039;DHT22;45916;52.734;6.544;2023-04-03T09:26:28;17.30;39.70
60039;DHT22;45916;52.734;6.544;2023-04-03T09:28:57;17.10;40.30
60039;DHT22;45916;52.734;6.544;2023-04-03T09:31:30;17.20;38.60
60039;DHT22;45916;52.734;6.544;2023-04-03T09:34:03;17.00;38.40
60039;DHT22;45916;52.734;6.544;2023-04-03T09:39:17;17.30;39.90
60039;DHT22;45916;52.734;6.544;2023-04-03T09:44:39;17.30;40.20
60039;DHT22;45916;52.734;6.544;2023-04-03T09:49:51;17.50;39.00
60039;DHT22;45916;52.734;6.544;2023-04-03T09:52:24;17.70;37.80
60039;DHT22;45916;52.734;6.544;2023-04-03T09:54:50;17.70;37.20
60039;DHT22;45916;52.734;6.544;2023-04-03T09:57:15;17.30;37.90
60039;DHT22;45916;52.734;6.544;2023-04-03T10:00:00;17.70;35.60
60039;DHT22;45916;52.734;6.544;2023-04-03T10:02:36;17.40;34.70
60039;DHT22;45916;52.734;6.544;2023-04-03T10:05:05;17.00;37.70
60039;DHT22;45916;52.734;6.544;2023-04-03T10:07:49;17.40;37.70
60039;DHT22;45916;52.734;6.544;2023-04-03T10:12:40;17.00;35.30
60039;DHT22;45916;52.734;6.544;2023-04-03T10:15:14;16.10;36.20
60039;DHT22;45916;52.734;6.544;2023-04-03T10:18:00;15.90;36.90
60039;DHT22;45916;52.734;6.544;2023-04-03T10:20:42;16.10;36.50
60039;DHT22;45916;52.734;6.544;2023-04-03T10:26:48;16.90;37.20
60039;DHT22;45916;52.734;6.544;2023-04-03T10:29:46;16.90;37.30
60039;DHT22;45916;52.734;6.544;2023-04-03T10:38:40;16.20;37.40
60039;DHT22;45916;52.734;6.544;2023-04-03T10:41:28;16.40;37.50
60039;DHT22;45916;52.734;6.544;2023-04-03T10:46:48;15.80;38.40
60039;DHT22;45916;52.734;6.544;2023-04-03T10:52:11;16.70;38.40
60039;DHT22;45916;52.734;6.544;2023-04-03T10:54:43;17.00;38.80
60039;DHT22;45916;52.734;6.544;2023-04-03T10:57:10;17.10;37.90
60039;DHT22;45916;52.734;6.544;2023-04-03T11:00:01;17.50;38.80
60039;DHT22;45916;52.734;6.544;2023-04-03T11:02:37;16.70;39.10
60039;DHT22;45916;52.734;6.544;2023-04-03T11:05:17;15.80;38.10
60039;DHT22;45916;52.734;6.544;2023-04-03T11:07:51;15.40;40.80
60039;DHT22;45916;52.734;6.544;2023-04-03T11:10:24;15.00;39.10
60039;DHT22;45916;52.734;6.544;2023-04-03T11:13:02;14.60;39.80
60039;DHT22;45916;52.734;6.544;2023-04-03T11:15:32;13.60;41.40
60039;DHT22;45916;52.734;6.544;2023-04-03T11:18:04;13.10;42.80
60039;DHT22;45916;52.734;6.544;2023-04-03T11:20:32;12.70;44.50
60039;DHT22;45916;52.734;6.544;2023-04-03T11:23:06;12.10;44.20
60039;DHT22;45916;52.734;6.544;2023-04-03T11:25:38;11.50;45.60
60039;DHT22;45916;52.734;6.544;2023-04-03T11:28:13;11.10;46.40
60039;DHT22;45916;52.734;6.544;2023-04-03T11:31:34;10.60;46.40
60039;DHT22;45916;52.734;6.544;2023-04-03T11:36:33;10.10;47.80
60039;DHT22;45916;52.734;6.544;2023-04-03T11:39:17;9.90;49.00
60039;DHT22;45916;52.734;6.544;2023-04-03T11:41:45;9.80;50.70
60039;DHT22;45916;52.734;6.544;2023-04-03T11:44:34;9.70;50.50
60039;DHT22;45916;52.734;6.544;2023-04-03T11:47:03;9.50;50.10
60039;DHT22;45916;52.734;6.544;2023-04-03T12:26:43;8.60;53.10
60039;DHT22;45916;52.734;6.544;2023-04-03T12:29:39;8.60;53.20
60039;DHT22;45916;52.734;6.544;2023-04-03T12:43:12;8.50;54.50
60039;DHT22;45916;52.734;6.544;2023-04-03T12:46:09;8.70;56.80
60039;DHT22;45916;52.734;6.544;2023-04-03T12:48:57;8.80;54.40
60039;DHT22;45916;52.734;6.544;2023-04-03T12:51:37;8.70;53.90
60039;DHT22;45916;52.734;6.544;2023-04-03T12:59:36;8.80;57.60
60039;DHT22;45916;52.734;6.544;2023-04-03T13:02:20;8.90;55.50
60039;DHT22;45916;52.734;6.544;2023-04-03T13:04:47;8.90;55.10
60039;DHT22;45916;52.734;6.544;2023-04-03T13:07:40;9.00;53.60
60039;DHT22;45916;52.734;6.544;2023-04-03T13:12:47;9.20;55.80
60039;DHT22;45916;52.734;6.544;2023-04-03T13:15:30;9.10;56.40
60039;DHT22;45916;52.734;6.544;2023-04-03T13:18:05;9.00;53.60
60039;DHT22;45916;52.734;6.544;2023-04-03T13:20:47;8.90;53.90
60039;DHT22;45916;52.734;6.544;2023-04-03T13:23:17;8.90;55.80
60039;DHT22;45916;52.734;6.544;2023-04-03T13:25:44;8.80;53.70
60039;DHT22;45916;52.734;6.544;2023-04-03T13:28:13;8.90;54.00
60039;DHT22;45916;52.734;6.544;2023-04-03T13:30:41;8.90;53.30
60039;DHT22;45916;52.734;6.544;2023-04-03T13:33:23;8.90;55.10
60039;DHT22;45916;52.734;6.544;2023-04-03T13:36:17;9.00;55.40
60039;DHT22;45916;52.734;6.544;2023-04-03T13:38:40;9.00;57.40
60039;DHT22;45916;52.734;6.544;2023-04-03T13:41:33;9.00;55.10
60039;DHT22;45916;52.734;6.544;2023-04-03T13:44:35;8.90;54.00
60039;DHT22;45916;52.734;6.544;2023-04-03T13:47:19;8.80;52.40
60039;DHT22;45916;52.734;6.544;2023-04-03T13:50:00;8.80;57.20
60039;DHT22;45916;52.734;6.544;2023-04-03T13:54:59;8.90;54.50
60039;DHT22;45916;52.734;6.544;2023-04-03T13:57:26;8.80;55.30
60039;DHT22;45916;52.734;6.544;2023-04-03T13:59:52;8.90;56.70
60039;DHT22;45916;52.734;6.544;2023-04-03T14:02:21;9.00;59.80
60039;DHT22;45916;52.734;6.544;2023-04-03T14:04:57;9.00;56.50
60039;DHT22;45916;52.734;6.544;2023-04-03T14:07:26;9.00;57.90
60039;DHT22;45916;52.734;6.544;2023-04-03T14:09:52;8.90;56.00
60039;DHT22;45916;52.734;6.544;2023-04-03T14:12:27;9.00;56.20
60039;DHT22;45916;52.734;6.544;2023-04-03T14:14:55;9.00;55.40
60039;DHT22;45916;52.734;6.544;2023-04-03T14:17:24;8.90;54.30
60039;DHT22;45916;52.734;6.544;2023-04-03T14:19:50;8.90;54.00
60039;DHT22;45916;52.734;6.544;2023-04-03T14:22:34;8.80;55.50
60039;DHT22;45916;52.734;6.544;2023-04-03T14:25:01;8.70;57.70
60039;DHT22;45916;52.734;6.544;2023-04-03T14:27:35;8.80;57.30
60039;DHT22;45916;52.734;6.544;2023-04-03T14:30:14;8.90;56.30
60039;DHT22;45916;52.734;6.544;2023-04-03T14:32:43;8.90;57.20
60039;DHT22;45916;52.734;6.544;2023-04-03T14:35:09;8.90;55.50
60039;DHT22;45916;52.734;6.544;2023-04-03T14:37:36;9.00;56.00
60039;DHT22;45916;52.734;6.544;2023-04-03T14:40:03;9.00;55.80
60039;DHT22;45916;52.734;6.544;2023-04-03T14:42:33;9.10;57.10
60039;DHT22;45916;52.734;6.544;2023-04-03T14:45:00;9.10;55.70
60039;DHT22;45916;52.734;6.544;2023-04-03T14:47:28;9.10;53.30
60039;DHT22;45916;52.734;6.544;2023-04-03T14:49:54;9.10;54.10
60039;DHT22;45916;52.734;6.544;2023-04-03T14:52:24;9.00;56.10
60039;DHT22;45916;52.734;6.544;2023-04-03T14:54:51;9.00;60.00
60039;DHT22;45916;52.734;6.544;2023-04-03T14:57:18;9.10;55.20
60039;DHT22;45916;52.734;6.544;2023-04-03T14:59:46;9.10;53.80
60039;DHT22;45916;52.734;6.544;2023-04-03T15:02:36;9.00;53.90
60039;DHT22;45916;52.734;6.544;2023-04-03T15:05:05;9.00;54.60
60039;DHT22;45916;52.734;6.544;2023-04-03T15:07:43;9.00;57.90
60039;DHT22;45916;52.734;6.544;2023-04-03T15:10:22;9.10;54.90
60039;DHT22;45916;52.734;6.544;2023-04-03T15:12:49;9.10;55.30
60039;DHT22;45916;52.734;6.544;2023-04-03T15:15:17;9.00;54.10
60039;DHT22;45916;52.734;6.544;2023-04-03T15:17:43;9.00;54.50
60039;DHT22;45916;52.734;6.544;2023-04-03T15:20:29;9.10;54.90
60039;DHT22;45916;52.734;6.544;2023-04-03T15:22:56;9.10;56.20
60039;DHT22;45916;52.734;6.544;2023-04-03T15:25:23;9.10;55.20
60039;DHT22;45916;52.734;6.544;2023-04-03T15:27:49;9.10;54.80
60039;DHT22;45916;52.734;6.544;2023-04-03T15:30:17;9.00;54.50
60039;DHT22;45916;52.734;6.544;2023-04-03T15:32:44;8.90;55.50
60039;DHT22;45916;52.734;6.544;2023-04-03T15:35:10;8.90;54.10
60039;DHT22;45916;52.734;6.544;2023-04-03T15:37:36;8.90;54.40
60039;DHT22;45916;52.734;6.544;2023-04-03T15:40:09;8.80;53.40
60039;DHT22;45916;52.734;6.544;2023-04-03T15:42:35;8.80;53.10
60039;DHT22;45916;52.734;6.544;2023-04-03T15:45:03;8.80;53.50
60039;DHT22;45916;52.734;6.544;2023-04-03T15:47:29;8.80;53.30
60039;DHT22;45916;52.734;6.544;2023-04-03T15:49:55;8.80;53.80
60039;DHT22;45916;52.734;6.544;2023-04-03T15:52:21;8.70;55.20
60039;DHT22;45916;52.734;6.544;2023-04-03T15:54:47;8.70;55.40
60039;DHT22;45916;52.734;6.544;2023-04-03T15:57:13;8.70;55.00
60039;DHT22;45916;52.734;6.544;2023-04-03T15:59:38;8.70;54.50
60039;DHT22;45916;52.734;6.544;2023-04-03T16:02:06;8.60;55.20
60039;DHT22;45916;52.734;6.544;2023-04-03T16:04:33;8.60;58.30
60039;DHT22;45916;52.734;6.544;2023-04-03T16:07:03;8.60;54.60
60039;DHT22;45916;52.734;6.544;2023-04-03T16:09:31;8.60;55.30
60039;DHT22;45916;52.734;6.544;2023-04-03T16:11:58;8.60;57.50
60039;DHT22;45916;52.734;6.544;2023-04-03T16:14:23;8.50;56.20
60039;DHT22;45916;52.734;6.544;2023-04-03T16:16:49;8.50;54.80
60039;DHT22;45916;52.734;6.544;2023-04-03T16:19:15;8.50;56.10
60039;DHT22;45916;52.734;6.544;2023-04-03T16:21:41;8.50;56.20
60039;DHT22;45916;52.734;6.544;2023-04-03T16:24:07;8.50;54.70
60039;DHT22;45916;52.734;6.544;2023-04-03T16:26:32;8.40;56.80
60039;DHT22;45916;52.734;6.544;2023-04-03T16:28:58;8.30;58.50
60039;DHT22;45916;52.734;6.544;2023-04-03T16:31:25;8.40;55.30
60039;DHT22;45916;52.734;6.544;2023-04-03T16:33:51;8.30;54.40
60039;DHT22;45916;52.734;6.544;2023-04-03T16:36:17;8.30;55.10
60039;DHT22;45916;52.734;6.544;2023-04-03T16:38:43;8.30;57.50
60039;DHT22;45916;52.734;6.544;2023-04-03T16:41:08;8.30;54.20
60039;DHT22;45916;52.734;6.544;2023-04-03T16:43:34;8.30;54.00
60039;DHT22;45916;52.734;6.544;2023-04-03T16:46:01;8.20;55.30
60039;DHT22;45916;52.734;6.544;2023-04-03T16:48:28;8.20;55.90
60039;DHT22;45916;52.734;6.544;2023-04-03T16:50:54;8.10;58.00
60039;DHT22;45916;52.734;6.544;2023-04-03T16:53:21;8.10;58.20
60039;DHT22;45916;52.734;6.544;2023-04-03T16:55:47;8.00;57.40
60039;DHT22;45916;52.734;6.544;2023-04-03T16:58:13;8.00;57.90
60039;DHT22;45916;52.734;6.544;2023-04-03T17:00:40;7.90;57.50
60039;DHT22;45916;52.734;6.544;2023-04-03T17:03:05;7.90;57.20
60039;DHT22;45916;52.734;6.544;2023-04-03T17:05:31;7.80;57.30
60039;DHT22;45916;52.734;6.544;2023-04-03T17:07:57;7.80;59.10
60039;DHT22;45916;52.734;6.544;2023-04-03T17:10:23;7.70;56.80
60039;DHT22;45916;52.734;6.544;2023-04-03T17:12:49;7.70;57.10
60039;DHT22;45916;52.734;6.544;2023-04-03T17:15:14;7.60;57.10
60039;DHT22;45916;52.734;6.544;2023-04-03T17:17:40;7.50;60.00
60039;DHT22;45916;52.734;6.544;2023-04-03T17:20:07;7.40;59.60
60039;DHT22;45916;52.734;6.544;2023-04-03T17:22:33;7.40;59.50
60039;DHT22;45916;52.734;6.544;2023-04-03T17:24:58;7.40;58.60
60039;DHT22;45916;52.734;6.544;2023-04-03T17:27:24;7.40;58.80
60039;DHT22;45916;52.734;6.544;2023-04-03T17:29:59;7.40;59.10
60039;DHT22;45916;52.734;6.544;2023-04-03T17:32:25;7.30;59.40